createdAt,value
2022-10-24T00:01:21.477Z,100627.78
2022-10-24T00:03:49.370Z,100632.91
2022-10-24T00:06:17.912Z,100629.66
2022-10-24T00:08:45.423Z,100637.75
2022-10-24T00:11:22.163Z,100637.75
2022-10-24T00:13:50.988Z,100642.34
2022-10-24T00:16:18.699Z,100656.91
2022-10-24T00:18:46.124Z,100663.63
2022-10-24T00:21:13.601Z,100657.44
2022-10-24T00:23:41.114Z,100662.56
2022-10-24T00:26:08.248Z,100665.53
2022-10-24T00:28:36.579Z,100666.59
2022-10-24T00:31:07.783Z,100654.47
2022-10-24T00:33:35.065Z,100659.59
2022-10-24T00:36:01.855Z,100653.66
2022-10-24T00:38:32.371Z,100648.53
2022-10-24T00:40:59.209Z,100650.69
2022-10-24T00:43:27.575Z,100631.53
2022-10-24T00:45:58.235Z,100633.44
2022-10-24T00:48:32.483Z,100632.63
2022-10-24T00:51:08.856Z,100640.16
2022-10-24T00:53:43.387Z,100647.44
2022-10-24T00:56:13.880Z,100659.03
2022-10-24T00:58:43.983Z,100661.72
2022-10-24T01:01:13.813Z,100663.31
2022-10-24T01:03:40.821Z,100687.59
2022-10-24T01:06:43.419Z,100678.91
2022-10-24T01:09:28.665Z,100690.22
2022-10-24T01:12:18.696Z,100701.28
2022-10-24T01:14:53.183Z,100690.75
2022-10-24T01:17:38.166Z,100698.03
2022-10-24T01:20:18.189Z,100679.97
2022-10-24T01:23:13.864Z,100676.75
2022-10-24T01:26:10.546Z,100681.06
2022-10-24T01:29:09.424Z,100681.84
2022-10-24T01:31:48.575Z,100677.22
2022-10-24T01:34:45.080Z,100656.47
2022-10-24T01:37:28.123Z,100647.88
2022-10-24T01:40:03.786Z,100645.97
2022-10-24T01:42:32.392Z,100629.81
2022-10-24T01:45:03.378Z,100632.78
2022-10-24T01:47:39.252Z,100633.59
2022-10-24T01:50:11.384Z,100637.34
2022-10-24T01:52:43.592Z,100630.09
2022-10-24T01:55:11.827Z,100613.91
2022-10-24T01:57:39.639Z,100611.22
2022-10-24T02:00:10.245Z,100608.00
2022-10-24T02:02:44.272Z,100608.81
2022-10-24T02:05:22.227Z,100600.97
2022-10-24T02:07:54.528Z,100584.28
2022-10-24T02:10:49.563Z,100593.69
2022-10-24T02:13:36.517Z,100595.59
2022-10-24T02:16:04.893Z,100597.47
2022-10-24T02:18:33.665Z,100587.75
2022-10-24T02:21:14.276Z,100600.44
2022-10-24T02:23:56.280Z,100600.41
2022-10-24T02:26:49.233Z,100595.03
2022-10-24T02:29:26.591Z,100594.75
2022-10-24T02:31:57.002Z,100604.97
2022-10-24T02:34:28.876Z,100603.34
2022-10-24T02:36:57.916Z,100597.16
2022-10-24T02:39:26.436Z,100598.75
2022-10-24T02:41:55.358Z,100594.19
2022-10-24T02:44:24.618Z,100589.88
2022-10-24T02:46:54.689Z,100582.06
2022-10-24T02:49:21.823Z,100587.44
2022-10-24T02:51:49.877Z,100578.56
2022-10-24T02:54:17.360Z,100564.00
2022-10-24T02:56:50.098Z,100572.91
2022-10-24T02:59:17.143Z,100575.84
2022-10-24T03:01:49.361Z,100581.22
2022-10-24T03:04:16.812Z,100584.19
2022-10-24T03:06:44.672Z,100586.84
2022-10-24T03:09:11.580Z,100584.97
2022-10-24T03:11:38.750Z,100571.50
2022-10-24T03:14:05.653Z,100575.53
2022-10-24T03:16:32.865Z,100573.91
2022-10-24T03:18:59.704Z,100568.00
2022-10-24T03:21:26.661Z,100570.69
2022-10-24T03:23:53.829Z,100580.66
2022-10-24T03:26:20.740Z,100583.34
2022-10-24T03:28:48.097Z,100576.88
2022-10-24T03:34:06.340Z,100574.97
2022-10-24T03:36:33.154Z,100572.78
2022-10-24T03:39:00.121Z,100586.28
2022-10-24T03:41:27.111Z,100581.94
2022-10-24T03:43:54.326Z,100572.00
2022-10-24T03:46:24.899Z,100581.94
2022-10-24T03:49:17.095Z,100578.41
2022-10-24T03:51:43.914Z,100585.94
2022-10-24T03:54:11.704Z,100585.94
2022-10-24T03:56:44.572Z,100569.50
2022-10-24T03:59:11.746Z,100566.25
2022-10-24T04:01:38.892Z,100578.31
2022-10-24T04:04:06.140Z,100583.13
2022-10-24T04:06:36.354Z,100587.72
2022-10-24T04:09:04.740Z,100585.84
2022-10-24T04:11:32.002Z,100581.78
2022-10-24T04:16:34.633Z,100584.22
2022-10-24T04:19:02.264Z,100577.75
2022-10-24T04:21:29.154Z,100589.88
2022-10-24T04:23:56.403Z,100585.84
2022-10-24T04:26:24.331Z,100586.91
2022-10-24T04:28:51.427Z,100574.78
2022-10-24T04:31:21.064Z,100579.91
2022-10-24T04:33:51.216Z,100585.28
2022-10-24T04:36:18.370Z,100583.13
2022-10-24T04:38:45.172Z,100580.16
2022-10-24T04:41:12.453Z,100584.47
2022-10-24T04:43:40.624Z,100587.16
2022-10-24T04:46:08.275Z,100582.59
2022-10-24T04:48:35.319Z,100585.28
2022-10-24T04:51:03.331Z,100589.59
2022-10-24T04:53:30.454Z,100586.09
2022-10-24T04:55:57.489Z,100598.72
2022-10-24T04:58:24.309Z,100588.53
2022-10-24T05:00:51.572Z,100579.91
2022-10-24T05:03:19.852Z,100587.44
2022-10-24T05:05:47.714Z,100601.97
2022-10-24T05:08:15.459Z,100609.78
2022-10-24T05:10:43.062Z,100611.66
2022-10-24T05:13:10.300Z,100615.97
2022-10-24T05:15:37.871Z,100619.47
2022-10-24T05:18:05.631Z,100613.84
2022-10-24T05:20:32.538Z,100611.16
2022-10-24T05:22:59.665Z,100611.72
2022-10-24T05:25:26.785Z,100611.72
2022-10-24T05:27:53.703Z,100619.03
2022-10-24T05:30:20.540Z,100620.66
2022-10-24T05:32:48.313Z,100627.41
2022-10-24T05:35:15.337Z,100616.63
2022-10-24T05:37:44.207Z,100615.56
2022-10-24T05:40:12.572Z,100618.53
2022-10-24T05:42:39.985Z,100605.91
2022-10-24T05:45:09.383Z,100601.06
2022-10-24T05:47:36.937Z,100595.41
2022-10-24T05:50:05.636Z,100586.00
2022-10-24T05:52:32.824Z,100592.19
2022-10-24T05:55:07.418Z,100589.78
2022-10-24T05:57:37.221Z,100583.84
2022-10-24T06:00:08.275Z,100594.09
2022-10-24T06:02:42.336Z,100596.78
2022-10-24T06:05:13.647Z,100595.97
2022-10-24T06:07:44.519Z,100593.03
2022-10-24T06:10:12.912Z,100597.06
2022-10-24T06:12:40.216Z,100581.72
2022-10-24T06:15:12.530Z,100587.13
2022-10-24T06:17:39.571Z,100590.09
2022-10-24T06:20:07.689Z,100572.59
2022-10-24T06:22:34.542Z,100574.22
2022-10-24T06:25:01.785Z,100577.19
2022-10-24T06:27:29.011Z,100577.75
2022-10-24T06:29:55.885Z,100579.09
2022-10-24T06:32:22.876Z,100583.94
2022-10-24T06:34:50.981Z,100592.56
2022-10-24T06:37:18.466Z,100590.69
2022-10-24T06:39:45.309Z,100588.78
2022-10-24T06:42:12.343Z,100592.56
2022-10-24T06:44:39.692Z,100592.84
2022-10-24T06:47:07.019Z,100588.81
2022-10-24T06:49:34.312Z,100594.75
2022-10-24T06:52:01.216Z,100601.22
2022-10-24T06:54:30.242Z,100597.72
2022-10-24T06:56:57.913Z,100609.59
2022-10-24T06:59:25.214Z,100605.00
2022-10-24T07:01:52.180Z,100595.59
2022-10-24T07:04:19.248Z,100604.22
2022-10-24T07:06:46.414Z,100612.84
2022-10-24T07:09:15.484Z,100625.00
2022-10-24T07:11:44.099Z,100629.31
2022-10-24T07:14:12.187Z,100642.81
2022-10-24T07:16:40.140Z,100638.50
2022-10-24T07:19:07.475Z,100642.03
2022-10-24T07:21:34.527Z,100630.72
2022-10-24T07:24:02.254Z,100637.47
2022-10-24T07:26:30.809Z,100627.22
2022-10-24T07:29:04.147Z,100616.19
2022-10-24T07:31:34.796Z,100618.59
2022-10-24T07:34:05.660Z,100617.25
2022-10-24T07:36:32.652Z,100614.28
2022-10-24T07:39:00.657Z,100622.38
2022-10-24T07:41:30.477Z,100622.66
2022-10-24T07:43:59.648Z,100631.53
2022-10-24T07:46:26.678Z,100628.00
2022-10-24T07:48:54.418Z,100636.88
2022-10-24T07:51:22.206Z,100635.03
2022-10-24T07:53:50.002Z,100630.41
2022-10-24T07:56:22.693Z,100632.53
2022-10-24T07:58:56.368Z,100644.38
2022-10-24T08:01:29.702Z,100641.63
2022-10-24T08:03:57.584Z,100629.44
2022-10-24T08:06:30.531Z,100622.13
2022-10-24T08:08:57.560Z,100623.97
2022-10-24T08:11:27.537Z,100615.53
2022-10-24T08:13:57.247Z,100623.59
2022-10-24T08:16:25.744Z,100615.66
2022-10-24T08:18:55.636Z,100611.25
2022-10-24T08:21:24.066Z,100607.09
2022-10-24T08:23:53.703Z,100621.38
2022-10-24T08:26:24.730Z,100620.22
2022-10-24T08:28:55.409Z,100617.06
2022-10-24T08:31:25.370Z,100608.06
2022-10-24T08:33:54.849Z,100607.19
2022-10-24T08:36:29.967Z,100609.50
2022-10-24T08:38:58.178Z,100613.41
2022-10-24T08:41:29.728Z,100613.22
2022-10-24T08:44:00.139Z,100601.69
2022-10-24T08:46:52.118Z,100608.22
2022-10-24T08:49:39.309Z,100613.75
2022-10-24T08:52:38.267Z,100600.00
2022-10-24T08:58:19.868Z,100593.56
2022-10-24T09:00:49.792Z,100594.63
2022-10-24T09:03:54.857Z,100585.16
2022-10-24T09:06:28.865Z,100590.41
2022-10-24T09:09:31.980Z,100583.38
2022-10-24T09:12:04.473Z,100585.91
2022-10-24T09:14:35.801Z,100587.66
2022-10-24T09:17:32.441Z,100587.19
2022-10-24T09:20:23.441Z,100588.78
2022-10-24T09:22:50.710Z,100581.28
2022-10-24T09:25:26.365Z,100585.69
2022-10-24T09:27:53.258Z,100594.13
2022-10-24T09:30:30.114Z,100596.13
2022-10-24T09:33:18.393Z,100600.88
2022-10-24T09:35:45.407Z,100593.34
2022-10-24T09:38:37.282Z,100587.78
2022-10-24T09:41:15.394Z,100583.97
2022-10-24T09:43:48.042Z,100580.03
2022-10-24T09:46:26.879Z,100590.19
2022-10-24T09:48:57.952Z,100592.28
2022-10-24T09:51:47.991Z,100586.75
2022-10-24T09:54:20.998Z,100597.53
2022-10-24T09:57:04.843Z,100599.53
2022-10-24T09:59:37.443Z,100594.09
2022-10-24T10:02:24.926Z,100590.94
2022-10-24T10:05:04.074Z,100593.88
2022-10-24T10:07:57.634Z,100585.91
2022-10-24T10:10:37.642Z,100574.59
2022-10-24T10:13:24.544Z,100578.19
2022-10-24T10:16:04.102Z,100572.63
2022-10-24T10:18:46.271Z,100564.16
2022-10-24T10:21:21.307Z,100573.50
2022-10-24T10:23:53.936Z,100570.16
2022-10-24T10:26:28.245Z,100569.66
2022-10-24T10:29:05.651Z,100574.00
2022-10-24T10:32:02.140Z,100574.63
2022-10-24T10:34:47.740Z,100568.19
2022-10-24T10:37:32.529Z,100575.34
2022-10-24T10:40:21.526Z,100564.28
2022-10-24T10:43:02.797Z,100568.72
2022-10-24T10:45:43.907Z,100572.25
2022-10-24T10:48:36.679Z,100570.47
2022-10-24T10:51:28.814Z,100571.38
2022-10-24T10:54:25.878Z,100567.69
2022-10-24T10:57:06.064Z,100569.59
2022-10-24T10:59:44.637Z,100578.06
2022-10-24T11:05:53.278Z,100564.47
2022-10-24T11:08:53.822Z,100563.03
2022-10-24T11:11:31.776Z,100562.41
2022-10-24T11:14:19.216Z,100563.91
2022-10-24T11:16:46.965Z,100556.44
2022-10-24T11:19:40.993Z,100555.81
2022-10-24T11:22:21.045Z,100556.91
2022-10-24T11:25:48.244Z,100560.13
2022-10-24T11:28:49.429Z,100564.47
2022-10-24T11:31:32.951Z,100568.81
2022-10-24T11:34:25.508Z,100561.25
2022-10-24T11:37:32.119Z,100553.28
2022-10-24T11:40:31.492Z,100561.81
2022-10-24T11:43:18.515Z,100558.59
2022-10-24T11:46:00.514Z,100557.78
2022-10-24T11:48:53.156Z,100555.06
2022-10-24T11:51:40.477Z,100553.94
2022-10-24T11:54:26.791Z,100551.22
2022-10-24T11:57:02.295Z,100544.84
2022-10-24T11:59:30.862Z,100551.09
2022-10-24T12:02:25.882Z,100530.50
2022-10-24T12:04:59.287Z,100532.91
2022-10-24T12:08:12.783Z,100527.78
2022-10-24T12:11:05.861Z,100528.09
2022-10-24T12:14:04.045Z,100530.50
2022-10-24T12:17:48.283Z,100530.06
2022-10-24T12:20:21.232Z,100527.31
2022-10-24T12:23:23.542Z,100540.81
2022-10-24T12:26:20.363Z,100527.59
2022-10-24T12:29:02.732Z,100520.53
2022-10-24T12:31:37.393Z,100518.91
2022-10-24T12:34:19.429Z,100511.25
2022-10-24T12:40:45.397Z,100512.19
2022-10-24T12:43:14.298Z,100504.13
2022-10-24T12:45:41.393Z,100491.50
2022-10-24T12:48:36.813Z,100488.53
2022-10-24T12:54:42.914Z,100489.66
2022-10-24T12:57:12.497Z,100484.72
2022-10-24T13:00:23.660Z,100497.25
2022-10-24T13:03:08.091Z,100480.59
2022-10-24T13:06:05.301Z,100477.22
2022-10-24T13:08:56.530Z,100485.97
2022-10-24T13:12:04.457Z,100485.97
2022-10-24T13:15:23.775Z,100484.84
2022-10-24T13:18:14.491Z,100474.72
2022-10-24T13:20:46.412Z,100484.19
2022-10-24T13:23:28.371Z,100485.66
2022-10-24T13:25:57.239Z,100478.22
2022-10-24T13:28:24.153Z,100480.22
2022-10-24T13:31:17.488Z,100476.66
2022-10-24T13:33:46.257Z,100479.25
2022-10-24T13:36:18.123Z,100474.97
2022-10-24T13:38:54.541Z,100489.00
2022-10-24T13:41:27.197Z,100472.69
2022-10-24T13:44:03.391Z,100465.16
2022-10-24T13:46:43.356Z,100475.44
2022-10-24T13:49:53.729Z,100483.59
2022-10-24T13:52:37.365Z,100482.25
2022-10-24T13:55:20.149Z,100481.03
2022-10-24T13:58:05.406Z,100492.78
2022-10-24T14:00:40.243Z,100486.53
2022-10-24T14:03:24.153Z,100510.09
2022-10-24T14:05:59.907Z,100516.47
2022-10-24T14:08:31.525Z,100501.59
2022-10-24T14:11:03.273Z,100504.38
2022-10-24T14:13:34.698Z,100503.16
2022-10-24T14:16:05.966Z,100491.09
2022-10-24T14:18:33.962Z,100490.13
2022-10-24T14:21:05.155Z,100493.19
2022-10-24T14:23:36.321Z,100490.94
2022-10-24T14:26:15.777Z,100497.34
2022-10-24T14:28:54.675Z,100479.69
2022-10-24T14:31:31.177Z,100492.84
2022-10-24T14:33:58.659Z,100494.69
2022-10-24T14:36:30.653Z,100508.16
2022-10-24T14:39:01.099Z,100500.75
2022-10-24T14:41:54.658Z,100509.91
2022-10-24T14:44:22.830Z,100507.16
2022-10-24T14:47:22.979Z,100523.63
2022-10-24T14:49:50.060Z,100525.34
2022-10-24T14:52:27.506Z,100525.66
2022-10-24T14:55:23.445Z,100526.78
2022-10-24T14:57:52.188Z,100514.75
2022-10-24T15:00:25.744Z,100509.13
2022-10-24T15:02:57.540Z,100519.03
2022-10-24T15:05:29.276Z,100519.78
2022-10-24T15:08:20.972Z,100509.63
2022-10-24T15:10:49.420Z,100504.91
2022-10-24T15:13:21.838Z,100514.03
2022-10-24T15:15:56.769Z,100516.38
2022-10-24T15:18:33.421Z,100510.75
2022-10-24T15:21:07.035Z,100512.13
2022-10-24T15:23:45.946Z,100515.59
2022-10-24T15:26:23.668Z,100522.41
2022-10-24T15:29:14.102Z,100534.84
2022-10-24T15:31:44.529Z,100531.22
2022-10-24T15:34:21.693Z,100525.41
2022-10-24T15:36:51.385Z,100538.63
2022-10-24T15:39:22.091Z,100528.94
2022-10-24T15:41:49.346Z,100516.69
2022-10-24T15:44:30.766Z,100519.22
2022-10-24T15:46:57.974Z,100527.28
2022-10-24T15:49:24.841Z,100530.44
2022-10-24T15:51:52.088Z,100522.78
2022-10-24T15:54:22.120Z,100531.56
2022-10-24T15:56:50.225Z,100544.72
2022-10-24T15:59:23.266Z,100534.06
2022-10-24T16:01:55.908Z,100548.25
2022-10-24T16:04:24.482Z,100546.22
2022-10-24T16:06:54.185Z,100548.25
2022-10-24T16:09:27.530Z,100553.78
2022-10-24T16:12:19.476Z,100557.16
2022-10-24T16:14:46.661Z,100555.13
2022-10-24T16:17:13.505Z,100559.56
2022-10-24T16:19:40.965Z,100559.94
2022-10-24T16:22:09.334Z,100568.38
2022-10-24T16:24:36.351Z,100563.34
2022-10-24T16:27:03.490Z,100572.69
2022-10-24T16:29:30.837Z,100558.09
2022-10-24T16:31:58.163Z,100559.25
2022-10-24T16:34:25.145Z,100568.22
2022-10-24T16:36:55.791Z,100571.22
2022-10-24T16:39:24.006Z,100578.03
2022-10-24T16:41:55.303Z,100570.72
2022-10-24T16:44:22.369Z,100559.22
2022-10-24T16:46:49.172Z,100569.25
2022-10-24T16:49:16.727Z,100573.88
2022-10-24T16:51:45.178Z,100578.28
2022-10-24T16:54:12.228Z,100587.03
2022-10-24T16:56:39.108Z,100584.59
2022-10-24T16:59:06.660Z,100585.41
2022-10-24T17:01:34.263Z,100591.94
2022-10-24T17:04:01.353Z,100574.22
2022-10-24T17:06:28.438Z,100589.91
2022-10-24T17:08:55.335Z,100587.78
2022-10-24T17:14:09.841Z,100592.22
2022-10-24T17:16:39.241Z,100593.31
2022-10-24T17:19:15.676Z,100599.56
2022-10-24T17:21:47.216Z,100597.44
2022-10-24T17:24:17.143Z,100578.81
2022-10-24T17:26:44.596Z,100587.81
2022-10-24T17:29:32.478Z,100596.53
2022-10-24T17:32:00.368Z,100594.19
2022-10-24T17:34:28.584Z,100582.84
2022-10-24T17:37:08.450Z,100594.28
2022-10-24T17:39:48.422Z,100596.47
2022-10-24T17:42:15.573Z,100596.25
2022-10-24T17:44:44.026Z,100593.78
2022-10-24T17:47:11.983Z,100591.97
2022-10-24T17:49:38.907Z,100593.88
2022-10-24T17:52:05.993Z,100601.69
2022-10-24T17:54:33.069Z,100601.47
2022-10-24T17:57:00.080Z,100611.00
2022-10-24T17:59:30.277Z,100604.53
2022-10-24T18:01:57.374Z,100613.78
2022-10-24T18:04:24.485Z,100609.75
2022-10-24T18:06:51.459Z,100610.53
2022-10-24T18:09:18.519Z,100617.06
2022-10-24T18:11:45.709Z,100624.38
2022-10-24T18:14:12.948Z,100621.22
2022-10-24T18:16:39.940Z,100620.13
2022-10-24T18:19:07.421Z,100628.81
2022-10-24T18:21:34.362Z,100616.97
2022-10-24T18:24:02.065Z,100628.59
2022-10-24T18:26:29.827Z,100628.09
2022-10-24T18:28:58.318Z,100635.97
2022-10-24T18:31:29.288Z,100625.94
2022-10-24T18:34:02.493Z,100631.94
2022-10-24T18:36:34.742Z,100633.63
2022-10-24T18:39:02.043Z,100631.16
2022-10-24T18:41:34.463Z,100634.97
2022-10-24T18:44:26.039Z,100630.94
2022-10-24T18:46:56.401Z,100631.28
2022-10-24T18:49:24.209Z,100637.78
2022-10-24T18:52:11.149Z,100633.47
2022-10-24T18:55:18.048Z,100629.72
2022-10-24T18:57:46.586Z,100635.72
2022-10-24T19:00:31.978Z,100633.81
2022-10-24T19:03:33.454Z,100640.59
2022-10-24T19:06:28.356Z,100636.03
2022-10-24T19:08:56.241Z,100640.94
2022-10-24T19:11:24.853Z,100638.22
2022-10-24T19:13:52.562Z,100635.00
2022-10-24T19:16:28.703Z,100643.38
2022-10-24T19:19:01.265Z,100634.47
2022-10-24T19:21:28.517Z,100640.41
2022-10-24T19:23:55.338Z,100631.78
2022-10-24T19:26:23.244Z,100632.88
2022-10-24T19:28:50.028Z,100635.56
2022-10-24T19:31:17.045Z,100628.31
2022-10-24T19:33:43.979Z,100636.94
2022-10-24T19:36:14.433Z,100636.44
2022-10-24T19:38:45.329Z,100631.03
2022-10-24T19:41:12.701Z,100633.19
2022-10-24T19:43:39.924Z,100639.16
2022-10-24T19:46:19.298Z,100633.22
2022-10-24T19:48:53.007Z,100641.34
2022-10-24T19:51:21.182Z,100638.13
2022-10-24T19:53:49.531Z,100640.88
2022-10-24T19:56:25.125Z,100643.84
2022-10-24T19:58:53.578Z,100637.41
2022-10-24T20:01:25.118Z,100637.69
2022-10-24T20:03:52.626Z,100629.63
2022-10-24T20:06:19.719Z,100632.59
2022-10-24T20:08:48.309Z,100633.44
2022-10-24T20:11:16.506Z,100648.06
2022-10-24T20:13:44.005Z,100648.63
2022-10-24T20:16:11.971Z,100643.78
2022-10-24T20:21:17.796Z,100641.66
2022-10-24T20:23:47.796Z,100652.75
2022-10-24T20:26:26.016Z,100655.22
2022-10-24T20:28:55.208Z,100649.25
2022-10-24T20:31:28.999Z,100653.31
2022-10-24T20:34:06.783Z,100668.22
2022-10-24T20:36:37.401Z,100668.53
2022-10-24T20:39:06.528Z,100671.75
2022-10-24T20:41:33.744Z,100680.97
2022-10-24T20:44:02.352Z,100672.59
2022-10-24T20:46:29.592Z,100671.00
2022-10-24T20:48:57.126Z,100675.31
2022-10-24T20:51:24.414Z,100671.84
2022-10-24T20:53:52.088Z,100684.03
2022-10-24T20:56:22.761Z,100678.63
2022-10-24T20:58:51.355Z,100676.22
2022-10-24T21:01:25.357Z,100682.72
2022-10-24T21:03:53.550Z,100686.78
2022-10-24T21:06:23.037Z,100692.72
2022-10-24T21:08:52.705Z,100698.69
2022-10-24T21:11:26.501Z,100703.56
2022-10-24T21:13:57.593Z,100700.06
2022-10-24T21:16:25.777Z,100703.84
2022-10-24T21:18:53.349Z,100701.97
2022-10-24T21:21:21.760Z,100701.41
2022-10-24T21:24:00.798Z,100704.69
2022-10-24T21:26:31.235Z,100697.66
2022-10-24T21:29:08.559Z,100710.88
2022-10-24T21:31:41.889Z,100712.25
2022-10-24T21:34:09.130Z,100706.84
2022-10-24T21:36:36.009Z,100719.53
2022-10-24T21:39:03.025Z,100708.47
2022-10-24T21:41:30.105Z,100714.97
2022-10-24T21:43:58.313Z,100719.84
2022-10-24T21:46:29.119Z,100722.81
2022-10-24T21:48:56.513Z,100721.22
2022-10-24T21:51:29.477Z,100719.88
2022-10-24T21:53:59.879Z,100726.91
2022-10-24T21:56:31.094Z,100726.91
2022-10-24T21:59:04.750Z,100724.75
2022-10-24T22:01:35.683Z,100723.41
2022-10-24T22:04:03.713Z,100729.66
2022-10-24T22:06:32.389Z,100727.22
2022-10-24T22:09:00.355Z,100733.44
2022-10-24T22:11:31.302Z,100728.88
2022-10-24T22:13:58.861Z,100732.13
2022-10-24T22:16:28.888Z,100736.13
2022-10-24T22:18:57.175Z,100732.38
2022-10-24T22:21:39.989Z,100732.13
2022-10-24T22:24:16.943Z,100741.56
2022-10-24T22:26:44.650Z,100737.25
2022-10-24T22:29:16.368Z,100740.75
2022-10-24T22:31:44.223Z,100747.25
2022-10-24T22:34:20.464Z,100754.25
2022-10-24T22:37:05.430Z,100750.47
2022-10-24T22:39:33.015Z,100761.00
2022-10-24T22:42:00.700Z,100753.19
2022-10-24T22:44:27.871Z,100754.53
2022-10-24T22:47:05.460Z,100755.34
2022-10-24T22:50:07.712Z,100760.47
2022-10-24T22:52:34.941Z,100762.63
2022-10-24T22:55:03.969Z,100766.97
2022-10-24T22:57:31.785Z,100762.63
2022-10-24T22:59:58.859Z,100779.13
2022-10-24T23:02:52.021Z,100776.41
2022-10-24T23:05:37.788Z,100777.22
2022-10-24T23:08:07.401Z,100771.03
2022-10-24T23:10:36.535Z,100777.50
2022-10-24T23:13:04.104Z,100777.50
2022-10-24T23:15:31.430Z,100778.06
2022-10-24T23:17:58.574Z,100774.56
2022-10-24T23:20:45.979Z,100769.16
2022-10-24T23:23:28.378Z,100782.38
2022-10-24T23:26:23.950Z,100772.69
2022-10-24T23:29:26.643Z,100773.22
2022-10-24T23:31:54.041Z,100779.44
2022-10-24T23:34:21.401Z,100769.69
2022-10-24T23:36:50.184Z,100780.22
2022-10-24T23:39:17.491Z,100778.31
2022-10-24T23:41:45.089Z,100778.84
2022-10-24T23:44:12.206Z,100788.03
2022-10-24T23:46:49.035Z,100789.94
2022-10-24T23:49:34.083Z,100793.97
2022-10-24T23:52:27.140Z,100788.03
2022-10-24T23:54:54.800Z,100785.06
2022-10-24T23:57:21.892Z,100781.53
2022-10-24T23:59:48.899Z,100793.97
